This is the latest recevied weather packets stored in our database for station/object SM7SJR-13. If no packets are shown the sender has not sent any weather packets the latest 10 day(s).
| Time | Temp. | Humidity | Pressure | Rain* | Wind** | Luminosity | Snow |
|---|---|---|---|---|---|---|---|
| 1777447804 | 10.56° C | 47% | 1028 hPa | 0 mm | - | 397 W/m² | - |
| 1777439704 | 3.89° C | 67% | 1027.7 hPa | 0 mm | - | 91 W/m² | - |
| 1777437004 | 2.78° C | 69% | 1027.3 hPa | 0 mm | - | 60 W/m² | - |
| 1777427104 | 0° C | 85% | 1027.2 hPa | 0 mm | - | 0 W/m² | - |
| 1777425304 | -1.11° C | 89% | 1027.2 hPa | 0 mm | - | 0 W/m² | - |
| 1777408205 | -1.67° C | 84% | 1027.2 hPa | 0 mm | - | 0 W/m² | - |
| 1777405504 | -0.56° C | 81% | 1027.1 hPa | 0 mm | - | 0 W/m² | - |
| 1777404604 | -0.56° C | 79% | 1027.1 hPa | 0 mm | - | 0 W/m² | - |
| 1777401004 | 2.78° C | 69% | 1026.8 hPa | 0 mm | - | 0 W/m² | - |
| 1777396504 | 7.78° C | 47% | 1026.3 hPa | 0 mm | - | 21 W/m² | - |
| 1777389304 | 9.44° C | 44% | 1026.2 hPa | 0 mm | - | 387 W/m² | - |
| 1777388404 | 9.44° C | 44% | 1026.2 hPa | 0 mm | - | 418 W/m² | - |
| 1777383004 | 10° C | 39% | 1026.1 hPa | 0 mm | - | 594 W/m² | - |
| 1777376704 | 10.56° C | 38% | 1026.2 hPa | 0 mm | - | 325 W/m² | - |
| 1777372204 | 10° C | 41% | 1025.8 hPa | 0 mm | - | 186 W/m² | - |
| 1777371304 | 11.11° C | 44% | 1025.8 hPa | 0 mm | - | 230 W/m² | - |
| 1777370404 | 10.56° C | 46% | 1026 hPa | 0 mm | - | 926 W/m² | - |
| 1777367704 | 9.44° C | 46% | 1026 hPa | 0 mm | - | 879 W/m² | - |
| 1777360504 | 10° C | 43% | 1025.9 hPa | 0 mm | - | 487 W/m² | - |
| 1777359604 | 9.44° C | 45% | 1025.6 hPa | 0 mm | - | 408 W/m² | - |
| 1777357803 | 8.89° C | 54% | 1025.6 hPa | 0 mm | - | 434 W/m² | - |
| 1777349704 | 1.67° C | 78% | 1024.8 hPa | 0 mm | - | 51 W/m² | - |
| 1777344304 | 1.11° C | 77% | 1024.3 hPa | 0 mm | - | 0 W/m² | - |
| 1777337104 | 0° C | 81% | 1024.1 hPa | 0 mm | - | 0 W/m² | - |
| 1777334404 | 0.56° C | 80% | 1023.8 hPa | 0 mm | - | 0 W/m² | - |
* Rain latest hour (hover to see other rain measurements)
** Current wind speed in m/s (hover to see current wind gust speed)